createdAt,value
2022-09-07T00:02:02.176Z,99937.70
2022-09-07T00:05:29.686Z,99931.95
2022-09-07T00:12:48.617Z,99922.44
2022-09-07T00:16:18.390Z,99923.11
2022-09-07T00:19:28.675Z,99920.05
2022-09-07T00:22:36.892Z,99922.30
2022-09-07T00:25:31.753Z,99922.50
2022-09-07T00:32:44.715Z,99915.76
2022-09-07T00:35:57.757Z,99918.79
2022-09-07T00:39:07.077Z,99922.11
2022-09-07T00:42:18.937Z,99919.16
2022-09-07T00:45:28.934Z,99917.80
2022-09-07T00:48:41.137Z,99911.30
2022-09-07T00:56:11.669Z,99897.02
2022-09-07T01:04:09.255Z,99895.46
2022-09-07T01:07:00.439Z,99899.44
2022-09-07T01:10:19.012Z,99896.25
2022-09-07T01:14:05.105Z,99897.25
2022-09-07T01:17:07.268Z,99888.01
2022-09-07T01:20:49.017Z,99891.20
2022-09-07T01:24:06.868Z,99892.20
2022-09-07T01:36:16.280Z,99882.22
2022-09-07T01:43:53.311Z,99881.67
2022-09-07T01:46:57.495Z,99874.91
2022-09-07T01:50:07.103Z,99871.55
2022-09-07T01:53:14.830Z,99868.45
2022-09-07T01:56:19.302Z,99869.11
2022-09-07T01:59:33.459Z,99872.67
2022-09-07T02:02:47.932Z,99870.06
2022-09-07T02:05:58.033Z,99871.27
2022-09-07T02:09:13.821Z,99864.39
2022-09-07T02:12:02.714Z,99852.58
2022-09-07T02:19:38.304Z,99854.75
2022-09-07T02:22:51.973Z,99855.09
2022-09-07T02:26:06.981Z,99852.48
2022-09-07T02:29:16.388Z,99852.77
2022-09-07T02:32:25.774Z,99852.36
2022-09-07T02:35:24.068Z,99852.02
2022-09-07T02:38:45.536Z,99849.45
2022-09-07T02:41:55.007Z,99844.86
2022-09-07T02:49:56.761Z,99857.88
2022-09-07T02:54:02.375Z,99859.79
2022-09-07T02:57:34.450Z,99862.39
2022-09-07T03:05:02.072Z,99846.89
2022-09-07T03:12:41.844Z,99849.63
2022-09-07T03:25:22.511Z,99846.88
2022-09-07T03:32:55.332Z,99844.53
2022-09-07T03:36:08.405Z,99845.06
2022-09-07T03:39:20.787Z,99847.55
2022-09-07T03:42:35.831Z,99844.66
2022-09-07T03:45:34.529Z,99844.78
2022-09-07T03:48:08.598Z,99840.41
2022-09-07T03:50:40.550Z,99841.36
2022-09-07T03:53:50.856Z,99838.51
2022-09-07T03:57:53.976Z,99840.67
2022-09-07T04:01:07.119Z,99843.69
2022-09-07T04:04:07.013Z,99845.59
2022-09-07T04:06:57.955Z,99845.59
2022-09-07T04:09:37.162Z,99847.54
2022-09-07T04:22:13.719Z,99839.00
2022-09-07T04:25:12.679Z,99843.67
2022-09-07T04:28:21.914Z,99846.54
2022-09-07T04:32:48.770Z,99842.36
2022-09-07T04:35:40.648Z,99840.86
2022-09-07T04:38:41.365Z,99841.34
2022-09-07T05:09:53.443Z,99820.23
2022-09-07T05:12:43.798Z,99811.05
2022-09-07T05:24:47.108Z,99819.36
2022-09-07T05:27:57.760Z,99817.04
2022-09-07T05:31:21.438Z,99816.17
2022-09-07T05:34:30.492Z,99819.27
2022-09-07T05:38:05.588Z,99821.65
2022-09-07T05:41:16.765Z,99819.33
2022-09-07T05:44:48.890Z,99820.52
2022-09-07T05:47:21.070Z,99823.30
2022-09-07T05:50:54.470Z,99827.52
2022-09-07T05:54:08.467Z,99827.73
2022-09-07T05:57:18.163Z,99823.39
2022-09-07T06:04:53.922Z,99830.97
2022-09-07T06:10:49.763Z,99827.09
2022-09-07T06:18:04.011Z,99828.21
2022-09-07T06:21:37.188Z,99829.88
2022-09-07T06:24:26.581Z,99826.54
2022-09-07T06:39:49.001Z,99824.75
2022-09-07T06:42:36.519Z,99828.52
2022-09-07T06:45:51.246Z,99829.55
2022-09-07T06:49:00.888Z,99843.06
2022-09-07T06:52:21.594Z,99842.19
2022-09-07T06:55:01.443Z,99845.59
2022-09-07T06:58:09.372Z,99842.05
2022-09-07T07:02:08.035Z,99843.63
2022-09-07T07:04:53.568Z,99846.48
2022-09-07T07:08:04.282Z,99855.55
2022-09-07T07:11:10.732Z,99857.84
2022-09-07T07:14:15.644Z,99863.06
2022-09-07T07:17:20.119Z,99870.52
2022-09-07T07:19:54.945Z,99870.54
2022-09-07T07:27:42.270Z,99864.50
2022-09-07T07:31:15.294Z,99861.62
2022-09-07T07:34:22.199Z,99852.85
2022-09-07T07:42:03.451Z,99846.26
2022-09-07T07:56:32.492Z,99853.63
2022-09-07T07:59:15.636Z,99855.09
2022-09-07T08:02:06.348Z,99854.13
2022-09-07T08:05:52.471Z,99856.09
2022-09-07T08:09:01.666Z,99855.91
2022-09-07T08:12:16.754Z,99860.61
2022-09-07T08:15:26.045Z,99858.80
2022-09-07T08:17:58.176Z,99857.56
2022-09-07T08:20:35.700Z,99858.20
2022-09-07T08:23:19.870Z,99858.55
2022-09-07T08:25:54.157Z,99859.13
2022-09-07T08:28:38.205Z,99863.31
2022-09-07T08:31:48.169Z,99867.10
2022-09-07T08:34:21.387Z,99864.19
2022-09-07T08:37:20.184Z,99861.56
2022-09-07T08:44:57.898Z,99853.33
2022-09-07T08:47:43.700Z,99859.63
2022-09-07T08:50:39.173Z,99852.48
2022-09-07T08:53:15.907Z,99854.82
2022-09-07T08:56:09.749Z,99857.92
2022-09-07T08:59:22.268Z,99864.25
2022-09-07T09:02:31.141Z,99869.55
2022-09-07T09:05:52.344Z,99873.66
2022-09-07T09:09:13.554Z,99879.48
2022-09-07T09:12:08.051Z,99882.70
2022-09-07T09:15:20.580Z,99884.92
2022-09-07T09:18:27.157Z,99883.21
2022-09-07T09:21:15.701Z,99880.76
2022-09-07T09:24:18.642Z,99876.23
2022-09-07T09:27:05.079Z,99868.98
2022-09-07T09:29:34.173Z,99872.59
2022-09-07T09:32:44.609Z,99872.95
2022-09-07T09:35:54.321Z,99875.44
2022-09-07T09:38:56.584Z,99873.22
2022-09-07T09:41:49.708Z,99873.26
2022-09-07T09:45:06.629Z,99879.74
2022-09-07T09:48:21.536Z,99883.01
2022-09-07T09:54:23.517Z,99878.41
2022-09-07T09:57:04.193Z,99874.80
2022-09-07T10:00:30.299Z,99882.54
2022-09-07T10:06:36.057Z,99883.91
2022-09-07T10:09:40.305Z,99879.30
2022-09-07T10:12:28.852Z,99880.64
2022-09-07T10:15:02.628Z,99878.39
2022-09-07T10:17:42.221Z,99878.92
2022-09-07T10:20:51.711Z,99876.33
2022-09-07T10:23:26.888Z,99877.88
2022-09-07T10:26:27.617Z,99879.40
2022-09-07T10:29:22.222Z,99882.70
2022-09-07T10:32:14.027Z,99880.96
2022-09-07T10:35:06.281Z,99876.79
2022-09-07T10:38:09.348Z,99873.18
2022-09-07T10:40:58.244Z,99875.15
2022-09-07T10:43:43.355Z,99873.70
2022-09-07T10:46:56.651Z,99869.94
2022-09-07T10:49:40.003Z,99871.83
2022-09-07T10:52:22.955Z,99871.98
2022-09-07T10:55:00.547Z,99867.71
2022-09-07T10:57:58.312Z,99865.52
2022-09-07T11:00:44.782Z,99863.71
2022-09-07T11:03:39.866Z,99867.93
2022-09-07T11:06:16.577Z,99870.91
2022-09-07T11:09:29.780Z,99870.90
2022-09-07T11:12:27.904Z,99873.66
2022-09-07T11:15:08.939Z,99875.66
2022-09-07T11:17:48.328Z,99870.23
2022-09-07T11:20:56.963Z,99871.23
2022-09-07T11:23:31.834Z,99878.20
2022-09-07T11:26:09.007Z,99877.02
2022-09-07T11:28:47.185Z,99872.90
2022-09-07T11:32:02.468Z,99877.15
2022-09-07T11:34:57.653Z,99877.66
2022-09-07T11:37:58.981Z,99872.33
2022-09-07T11:40:49.236Z,99874.92
2022-09-07T11:43:55.979Z,99889.86
2022-09-07T11:46:32.876Z,99885.70
2022-09-07T13:01:44.049Z,99841.08
2022-09-07T13:38:44.544Z,99820.69
2022-09-07T13:42:02.838Z,99826.27
2022-09-07T13:49:02.022Z,99827.73
2022-09-07T14:16:34.064Z,99813.17
2022-09-07T14:25:22.488Z,99811.05
2022-09-07T14:28:03.057Z,99812.11
2022-09-07T14:30:37.152Z,99815.83
2022-09-07T14:33:19.786Z,99817.43
2022-09-07T14:35:54.320Z,99818.94
2022-09-07T14:41:38.072Z,99823.56
2022-09-07T14:44:31.723Z,99820.98
2022-09-07T14:47:29.175Z,99818.33
2022-09-07T14:54:24.266Z,99820.79
2022-09-07T14:57:32.607Z,99811.48
2022-09-07T15:00:37.920Z,99820.92
2022-09-07T15:03:32.655Z,99818.59
2022-09-07T15:06:06.283Z,99819.27
2022-09-07T15:08:46.844Z,99824.10
2022-09-07T15:11:33.559Z,99828.46
2022-09-07T15:14:23.572Z,99828.69
2022-09-07T15:20:40.459Z,99827.14
2022-09-07T15:23:24.539Z,99820.98
2022-09-07T15:26:04.621Z,99822.61
2022-09-07T15:31:43.420Z,99821.25
2022-09-07T15:34:27.518Z,99820.00
2022-09-07T15:37:00.221Z,99821.60
2022-09-07T15:39:33.955Z,99818.37
2022-09-07T15:44:58.274Z,99812.45
2022-09-07T15:47:47.168Z,99819.05
2022-09-07T15:50:18.838Z,99820.57
2022-09-07T15:52:51.131Z,99813.69
2022-09-07T15:55:28.880Z,99811.59
2022-09-07T15:58:18.680Z,99811.52
2022-09-07T16:04:15.168Z,99813.48
2022-09-07T16:06:48.206Z,99815.05
2022-09-07T16:09:21.442Z,99811.52
2022-09-07T16:13:00.119Z,99808.91
2022-09-07T16:14:56.431Z,99805.71
2022-09-07T16:17:47.294Z,99804.75
2022-09-07T16:20:20.186Z,99804.35
2022-09-07T16:27:32.227Z,99797.19
2022-09-07T16:30:13.502Z,99791.81
2022-09-07T16:32:44.967Z,99793.27
2022-09-07T16:35:17.041Z,99798.95
2022-09-07T16:40:56.166Z,99794.55
2022-09-07T16:43:25.526Z,99796.01
2022-09-07T16:46:04.955Z,99797.61
2022-09-07T16:48:35.556Z,99791.52
2022-09-07T16:51:15.821Z,99798.71
2022-09-07T16:53:59.237Z,99796.13
2022-09-07T16:56:39.109Z,99794.07
2022-09-07T16:59:19.708Z,99792.64
2022-09-07T17:02:20.051Z,99789.23
2022-09-07T17:04:50.206Z,99790.39
2022-09-07T17:07:19.625Z,99788.13
2022-09-07T17:09:54.261Z,99791.92
2022-09-07T17:12:23.511Z,99788.64
2022-09-07T17:14:53.659Z,99787.85
2022-09-07T17:17:45.621Z,99786.51
2022-09-07T17:20:14.544Z,99794.08
2022-09-07T17:22:53.216Z,99798.20
2022-09-07T17:25:24.775Z,99803.11
2022-09-07T17:28:25.440Z,99803.63
2022-09-07T17:34:13.799Z,99802.80
2022-09-07T17:37:02.776Z,99807.23
2022-09-07T17:39:54.279Z,99806.02
2022-09-07T17:43:38.694Z,99809.11
2022-09-07T17:45:19.220Z,99809.48
2022-09-07T17:48:05.001Z,99809.11
2022-09-07T17:50:36.737Z,99802.83
2022-09-07T17:53:45.302Z,99804.21
2022-09-07T17:56:32.392Z,99806.16
2022-09-07T18:02:13.713Z,99812.98
2022-09-07T18:04:55.615Z,99808.61
2022-09-07T18:07:27.203Z,99808.46
2022-09-07T18:10:19.294Z,99812.99
2022-09-07T18:12:57.357Z,99810.67
2022-09-07T18:15:49.447Z,99808.42
2022-09-07T18:18:29.374Z,99808.32
2022-09-07T18:21:20.965Z,99817.09
2022-09-07T18:24:24.508Z,99822.29
2022-09-07T18:26:54.221Z,99818.55
2022-09-07T18:29:43.501Z,99822.01
2022-09-07T18:32:15.235Z,99822.50
2022-09-07T18:35:32.409Z,99828.17
2022-09-07T18:39:36.191Z,99836.80
2022-09-07T18:43:04.211Z,99840.52
2022-09-07T18:46:08.487Z,99842.23
2022-09-07T18:48:37.525Z,99848.90
2022-09-07T18:52:51.712Z,99854.88
2022-09-07T18:54:25.429Z,99854.05
2022-09-07T18:57:55.676Z,99854.70
2022-09-07T19:00:49.689Z,99854.28
2022-09-07T19:03:28.778Z,99858.42
2022-09-07T19:06:04.596Z,99864.05
2022-09-07T19:08:56.818Z,99860.55
2022-09-07T19:11:28.867Z,99868.00
2022-09-07T19:14:09.660Z,99866.67
2022-09-07T19:17:19.358Z,99870.55
2022-09-07T19:20:00.465Z,99872.25
2022-09-07T19:22:52.628Z,99870.88
2022-09-07T19:25:26.739Z,99866.69
2022-09-07T19:28:33.924Z,99867.95
2022-09-07T19:31:25.168Z,99867.74
2022-09-07T19:34:54.340Z,99877.05
2022-09-07T19:37:46.168Z,99879.23
2022-09-07T19:40:57.387Z,99883.33
2022-09-07T19:44:04.903Z,99880.92
2022-09-07T19:46:53.492Z,99883.10
2022-09-07T19:49:45.528Z,99879.20
2022-09-07T19:52:42.643Z,99876.48
2022-09-07T19:55:23.504Z,99873.50
2022-09-07T19:58:36.341Z,99872.10
2022-09-07T20:02:00.336Z,99869.56
2022-09-07T20:04:58.661Z,99868.84
2022-09-07T20:08:08.315Z,99867.41
2022-09-07T20:11:07.683Z,99863.95
2022-09-07T20:14:18.479Z,99871.81
2022-09-07T20:17:11.959Z,99872.23
2022-09-07T20:19:45.581Z,99869.79
2022-09-07T20:22:42.522Z,99865.77
2022-09-07T20:25:34.521Z,99868.21
2022-09-07T20:28:42.390Z,99868.43
2022-09-07T20:31:26.162Z,99864.24
2022-09-07T20:34:29.927Z,99860.79
2022-09-07T20:37:25.357Z,99856.11
2022-09-07T20:40:19.070Z,99846.58
2022-09-07T20:43:08.348Z,99846.23
2022-09-07T20:45:46.892Z,99852.94
2022-09-07T20:48:21.520Z,99852.38
2022-09-07T20:51:11.782Z,99849.96
2022-09-07T20:54:05.429Z,99852.83
2022-09-07T20:56:45.204Z,99853.45
2022-09-07T20:59:43.827Z,99855.59
2022-09-07T21:02:50.793Z,99854.38
2022-09-07T21:05:36.051Z,99854.77
2022-09-07T21:08:25.205Z,99860.17
2022-09-07T21:11:29.182Z,99862.09
2022-09-07T21:14:38.371Z,99859.86
2022-09-07T21:17:30.290Z,99855.71
2022-09-07T21:20:32.235Z,99855.11
2022-09-07T21:23:38.093Z,99852.98
2022-09-07T21:27:05.480Z,99853.58
2022-09-07T21:29:52.403Z,99853.36
2022-09-07T21:32:32.449Z,99854.86
2022-09-07T21:35:28.633Z,99855.48
2022-09-07T21:38:28.738Z,99852.33
2022-09-07T21:41:16.389Z,99852.21
2022-09-07T21:44:13.427Z,99854.15
2022-09-07T21:47:12.056Z,99851.87
2022-09-07T21:50:06.358Z,99853.11
2022-09-07T21:52:56.362Z,99856.27
2022-09-07T21:55:37.212Z,99858.89
2022-09-07T21:58:35.620Z,99861.35
2022-09-07T22:01:12.655Z,99861.23
2022-09-07T22:08:30.925Z,99859.39
2022-09-07T22:12:25.932Z,99857.93
2022-09-07T22:19:59.297Z,99854.95
2022-09-07T22:22:49.996Z,99855.66
2022-09-07T22:25:50.733Z,99852.55
2022-09-07T22:28:31.711Z,99850.59
2022-09-07T22:31:48.444Z,99851.23
2022-09-07T22:34:25.419Z,99854.39
2022-09-07T22:37:05.688Z,99858.24
2022-09-07T22:39:54.812Z,99855.42
2022-09-07T22:42:46.917Z,99853.17
2022-09-07T22:45:21.191Z,99851.77
2022-09-07T22:48:01.420Z,99846.63
2022-09-07T22:50:35.989Z,99848.29
2022-09-07T22:53:09.714Z,99847.41
2022-09-07T22:56:00.998Z,99847.28
2022-09-07T22:58:47.025Z,99847.61
2022-09-07T23:01:20.129Z,99845.99
2022-09-07T23:08:18.907Z,99843.42
2022-09-07T23:11:28.425Z,99843.84
2022-09-07T23:14:04.976Z,99846.51
2022-09-07T23:16:37.199Z,99842.61
2022-09-07T23:19:36.117Z,99839.65
2022-09-07T23:22:55.446Z,99839.45
2022-09-07T23:25:47.358Z,99838.05
2022-09-07T23:28:39.305Z,99838.20
2022-09-07T23:31:54.180Z,99838.88
2022-09-07T23:35:03.502Z,99833.30
2022-09-07T23:38:30.225Z,99827.65
2022-09-07T23:41:18.339Z,99825.97
2022-09-07T23:44:33.284Z,99826.99
2022-09-07T23:47:18.879Z,99828.73
2022-09-07T23:50:28.070Z,99827.63
2022-09-07T23:53:28.684Z,99831.96
